createdAt,value
2023-04-23T00:00:42.305Z,20.73
2023-04-23T00:01:45.499Z,20.79
2023-04-23T00:02:50.002Z,20.76
2023-04-23T00:03:55.747Z,20.75
2023-04-23T00:05:02.731Z,20.81
2023-04-23T00:06:10.307Z,20.72
2023-04-23T00:07:14.214Z,20.81
2023-04-23T00:08:18.281Z,20.80
2023-04-23T00:09:22.843Z,20.78
2023-04-23T00:10:25.252Z,20.77
2023-04-23T00:11:28.161Z,20.77
2023-04-23T00:12:30.522Z,20.75
2023-04-23T00:13:32.933Z,20.72
2023-04-23T00:14:35.112Z,20.74
2023-04-23T00:15:37.583Z,20.72
2023-04-23T00:16:40.442Z,20.72
2023-04-23T00:17:42.340Z,20.72
2023-04-23T00:18:44.145Z,20.70
2023-04-23T00:19:47.507Z,20.70
2023-04-23T00:20:49.447Z,20.62
2023-04-23T00:21:51.569Z,20.69
2023-04-23T00:22:53.416Z,20.68
2023-04-23T00:23:55.739Z,20.59
2023-04-23T00:24:57.588Z,20.63
2023-04-23T00:25:59.375Z,20.65
2023-04-23T00:27:01.562Z,20.64
2023-04-23T00:28:03.730Z,20.63
2023-04-23T00:29:05.595Z,20.54
2023-04-23T00:30:09.094Z,20.61
2023-04-23T00:31:10.981Z,20.59
2023-04-23T00:32:14.586Z,20.61
2023-04-23T00:33:16.460Z,20.61
2023-04-23T00:34:18.424Z,20.61
2023-04-23T00:35:20.881Z,20.53
2023-04-23T00:36:22.819Z,20.59
2023-04-23T00:37:24.769Z,20.58
2023-04-23T00:38:26.745Z,20.56
2023-04-23T00:39:28.940Z,20.56
2023-04-23T00:40:30.824Z,20.50
2023-04-23T00:41:32.689Z,20.55
2023-04-23T00:42:34.724Z,20.54
2023-04-23T00:43:37.547Z,20.53
2023-04-23T00:44:40.937Z,20.53
2023-04-23T00:45:43.060Z,20.32
2023-04-23T00:46:46.388Z,20.53
2023-04-23T00:47:48.631Z,20.46
2023-04-23T00:48:51.112Z,20.51
2023-04-23T00:49:55.675Z,20.45
2023-04-23T00:51:00.378Z,20.50
2023-04-23T00:52:02.451Z,20.47
2023-04-23T00:53:04.376Z,20.49
2023-04-23T00:54:07.303Z,20.47
2023-04-23T00:55:09.314Z,20.42
2023-04-23T00:56:11.677Z,20.48
2023-04-23T00:57:14.445Z,20.41
2023-04-23T00:58:16.346Z,20.46
2023-04-23T00:59:18.962Z,20.40
2023-04-23T01:00:21.012Z,20.45
2023-04-23T01:01:23.598Z,20.45
2023-04-23T01:02:28.228Z,20.44
2023-04-23T01:03:32.282Z,20.44
2023-04-23T01:04:35.709Z,20.44
2023-04-23T01:05:37.607Z,20.44
2023-04-23T01:06:39.546Z,20.38
2023-04-23T01:07:44.049Z,20.41
2023-04-23T01:08:47.705Z,20.42
2023-04-23T01:09:51.866Z,20.42
2023-04-23T01:10:54.739Z,20.41
2023-04-23T01:11:58.146Z,20.41
2023-04-23T01:13:00.250Z,20.34
2023-04-23T01:14:03.471Z,20.33
2023-04-23T01:15:06.568Z,20.39
2023-04-23T01:16:09.109Z,20.38
2023-04-23T01:17:12.692Z,20.38
2023-04-23T01:18:15.570Z,20.34
2023-04-23T01:19:17.549Z,20.38
2023-04-23T01:20:19.666Z,20.37
2023-04-23T01:21:22.014Z,20.30
2023-04-23T01:22:24.524Z,20.37
2023-04-23T01:23:27.276Z,20.32
2023-04-23T01:24:31.485Z,20.31
2023-04-23T01:25:33.368Z,20.28
2023-04-23T01:26:35.736Z,20.33
2023-04-23T01:27:38.758Z,20.33
2023-04-23T01:28:42.896Z,20.30
2023-04-23T01:29:44.798Z,20.33
2023-04-23T01:30:47.991Z,20.32
2023-04-23T01:31:51.149Z,20.32
2023-04-23T01:32:55.600Z,20.31
2023-04-23T01:33:58.866Z,20.32
2023-04-23T01:35:01.668Z,20.32
2023-04-23T01:36:04.505Z,20.30
2023-04-23T01:37:06.979Z,20.29
2023-04-23T01:38:11.263Z,20.24
2023-04-23T01:39:13.073Z,20.30
2023-04-23T01:40:15.036Z,20.28
2023-04-23T01:41:17.151Z,20.26
2023-04-23T01:42:19.507Z,20.21
2023-04-23T01:43:22.613Z,20.27
2023-04-23T01:44:24.535Z,20.26
2023-04-23T01:45:26.544Z,20.26
2023-04-23T01:46:28.975Z,20.21
2023-04-23T01:47:31.175Z,20.25
2023-04-23T01:48:33.358Z,20.25
2023-04-23T01:49:35.289Z,20.24
2023-04-23T01:50:37.316Z,20.20
2023-04-23T01:51:39.313Z,20.23
2023-04-23T01:52:42.133Z,20.22
2023-04-23T01:53:43.955Z,20.23
2023-04-23T01:54:45.720Z,20.21
2023-04-23T01:55:48.423Z,20.20
2023-04-23T01:56:54.752Z,20.21
2023-04-23T01:57:56.939Z,20.21
2023-04-23T01:58:58.803Z,20.22
2023-04-23T02:00:11.590Z,20.21
2023-04-23T02:01:16.489Z,20.22
2023-04-23T02:02:19.477Z,20.11
2023-04-23T02:03:21.911Z,20.19
2023-04-23T02:04:24.537Z,20.19
2023-04-23T02:05:29.412Z,20.06
2023-04-23T02:06:31.984Z,20.09
2023-04-23T02:07:34.624Z,20.14
2023-04-23T02:08:37.039Z,20.17
2023-04-23T02:09:40.032Z,20.17
2023-04-23T02:10:41.847Z,20.16
2023-04-23T02:11:43.981Z,20.15
2023-04-23T02:12:45.847Z,20.15
2023-04-23T02:13:47.703Z,20.12
2023-04-23T02:14:49.589Z,20.01
2023-04-23T02:15:51.411Z,20.12
2023-04-23T02:16:54.287Z,20.12
2023-04-23T02:17:56.447Z,20.12
2023-04-23T02:18:58.574Z,20.11
2023-04-23T02:20:02.744Z,20.11
2023-04-23T02:21:04.726Z,20.10
2023-04-23T02:22:07.665Z,20.09
2023-04-23T02:23:09.753Z,20.08
2023-04-23T02:24:11.906Z,20.10
2023-04-23T02:25:15.853Z,20.08
2023-04-23T02:26:18.856Z,20.09
2023-04-23T02:27:21.748Z,20.08
2023-04-23T02:28:23.619Z,20.08
2023-04-23T02:29:25.398Z,20.05
2023-04-23T02:30:27.681Z,20.07
2023-04-23T02:31:29.645Z,20.06
2023-04-23T02:32:31.688Z,20.06
2023-04-23T02:33:33.570Z,20.05
2023-04-23T02:34:35.481Z,19.96
2023-04-23T02:35:37.632Z,20.04
2023-04-23T02:36:39.454Z,20.01
2023-04-23T02:37:41.299Z,19.84
2023-04-23T02:38:44.965Z,20.02
2023-04-23T02:39:46.885Z,20.03
2023-04-23T02:40:48.700Z,20.02
2023-04-23T02:41:50.909Z,20.01
2023-04-23T02:42:52.770Z,20.02
2023-04-23T02:43:54.550Z,20.00
2023-04-23T02:44:56.906Z,19.95
2023-04-23T02:45:58.683Z,20.00
2023-04-23T02:47:01.298Z,19.96
2023-04-23T02:48:03.390Z,20.00
2023-04-23T02:49:06.817Z,20.00
2023-04-23T02:50:08.811Z,19.98
2023-04-23T02:51:12.500Z,19.98
2023-04-23T02:52:14.408Z,19.98
2023-04-23T02:53:16.398Z,19.95
2023-04-23T02:54:18.599Z,19.98
2023-04-23T02:55:20.564Z,19.97
2023-04-23T02:56:22.437Z,19.90
2023-04-23T02:57:24.509Z,19.89
2023-04-23T02:58:26.877Z,19.97
2023-04-23T02:59:30.569Z,19.97
2023-04-23T03:00:32.498Z,19.97
2023-04-23T03:01:34.749Z,19.92
2023-04-23T03:02:37.371Z,19.96
2023-04-23T03:03:39.929Z,19.95
2023-04-23T03:04:42.490Z,19.94
2023-04-23T03:05:44.630Z,19.95
2023-04-23T03:06:46.746Z,19.95
2023-04-23T03:07:50.422Z,19.95
2023-04-23T03:08:52.394Z,19.89
2023-04-23T03:09:54.209Z,19.92
2023-04-23T03:10:56.219Z,19.94
2023-04-23T03:11:58.762Z,19.83
2023-04-23T03:13:00.717Z,19.95
2023-04-23T03:14:02.569Z,19.91
2023-04-23T03:15:04.719Z,19.84
2023-04-23T03:16:09.292Z,19.94
2023-04-23T03:17:11.366Z,19.91
2023-04-23T03:18:13.662Z,19.92
2023-04-23T03:19:15.709Z,19.91
2023-04-23T03:20:17.566Z,19.86
2023-04-23T03:21:20.218Z,19.91
2023-04-23T03:22:22.044Z,19.90
2023-04-23T03:23:23.888Z,19.71
2023-04-23T03:24:26.194Z,19.90
2023-04-23T03:25:28.123Z,19.88
2023-04-23T03:26:29.960Z,19.81
2023-04-23T03:27:31.934Z,19.88
2023-04-23T03:28:33.821Z,19.86
2023-04-23T03:29:36.140Z,19.87
2023-04-23T03:30:38.095Z,19.81
2023-04-23T03:31:39.940Z,19.86
2023-04-23T03:32:44.375Z,19.86
2023-04-23T03:33:47.445Z,19.88
2023-04-23T03:34:52.700Z,19.89
2023-04-23T03:35:54.596Z,19.87
2023-04-23T03:37:05.032Z,19.90
2023-04-23T03:38:08.747Z,19.89
2023-04-23T03:39:12.113Z,19.88
2023-04-23T03:40:29.131Z,19.86
2023-04-23T03:41:34.733Z,19.77
2023-04-23T03:42:37.553Z,19.89
2023-04-23T03:43:40.324Z,19.88
2023-04-23T03:44:51.722Z,19.89
2023-04-23T03:45:54.302Z,19.88
2023-04-23T03:46:56.984Z,19.85
2023-04-23T03:47:58.947Z,19.85
2023-04-23T03:49:01.292Z,19.84
2023-04-23T03:50:03.290Z,19.83
2023-04-23T03:51:05.293Z,19.84
2023-04-23T03:52:22.200Z,19.86
2023-04-23T03:53:24.190Z,19.83
2023-04-23T03:54:44.713Z,19.88
2023-04-23T03:55:52.391Z,19.87
2023-04-23T03:56:54.692Z,19.83
2023-04-23T03:58:03.587Z,19.81
2023-04-23T03:59:16.933Z,19.68
2023-04-23T04:00:20.756Z,19.84
2023-04-23T04:01:22.639Z,19.82
2023-04-23T04:02:26.118Z,19.80
2023-04-23T04:03:29.310Z,19.80
2023-04-23T04:04:32.230Z,19.79
2023-04-23T04:05:35.023Z,19.79
2023-04-23T04:06:36.902Z,19.73
2023-04-23T04:07:38.942Z,19.78
2023-04-23T04:08:40.730Z,19.78
2023-04-23T04:09:42.492Z,19.77
2023-04-23T04:10:44.427Z,19.76
2023-04-23T04:11:46.302Z,19.76
2023-04-23T04:12:48.437Z,19.75
2023-04-23T04:13:50.245Z,19.76
2023-04-23T04:14:52.038Z,19.75
2023-04-23T04:15:53.880Z,19.76
2023-04-23T04:16:55.697Z,19.74
2023-04-23T04:17:57.592Z,19.74
2023-04-23T04:18:59.454Z,19.74
2023-04-23T04:20:01.224Z,19.60
2023-04-23T04:21:03.045Z,19.71
2023-04-23T04:22:05.002Z,19.72
2023-04-23T04:23:06.794Z,19.72
2023-04-23T04:24:08.801Z,19.73
2023-04-23T04:25:10.580Z,19.73
2023-04-23T04:27:15.841Z,19.65
2023-04-23T04:28:17.881Z,19.72
2023-04-23T04:29:21.434Z,19.71
2023-04-23T04:30:24.773Z,19.71
2023-04-23T04:31:28.206Z,19.73
2023-04-23T04:32:30.145Z,19.72
2023-04-23T04:33:33.019Z,19.71
2023-04-23T04:34:36.213Z,19.71
2023-04-23T04:35:38.089Z,19.64
2023-04-23T04:36:39.910Z,19.63
2023-04-23T04:37:43.880Z,19.69
2023-04-23T04:38:45.762Z,19.71
2023-04-23T04:39:47.532Z,19.70
2023-04-23T04:40:50.636Z,19.69
2023-04-23T04:41:52.569Z,19.70
2023-04-23T04:42:55.199Z,19.66
2023-04-23T04:43:58.577Z,19.69
2023-04-23T04:45:00.822Z,19.70
2023-04-23T04:46:03.198Z,19.69
2023-04-23T04:47:08.167Z,19.69
2023-04-23T04:48:10.164Z,19.63
2023-04-23T04:49:12.677Z,19.68
2023-04-23T04:50:14.531Z,19.69
2023-04-23T04:51:16.464Z,19.61
2023-04-23T04:52:18.429Z,19.67
2023-04-23T04:53:20.289Z,19.68
2023-04-23T04:54:22.109Z,19.68
2023-04-23T04:55:23.950Z,19.68
2023-04-23T04:56:26.090Z,19.63
2023-04-23T04:57:27.843Z,19.68
2023-04-23T04:58:29.611Z,19.65
2023-04-23T04:59:31.476Z,19.67
2023-04-23T05:00:33.821Z,19.68
2023-04-23T05:01:37.230Z,19.66
2023-04-23T05:02:39.421Z,19.69
2023-04-23T05:03:41.540Z,19.66
2023-04-23T05:04:43.690Z,19.64
2023-04-23T05:05:45.925Z,19.66
2023-04-23T05:06:47.722Z,19.59
2023-04-23T05:07:50.142Z,19.66
2023-04-23T05:08:51.963Z,19.66
2023-04-23T05:09:53.732Z,19.65
2023-04-23T05:10:55.627Z,19.65
2023-04-23T05:11:58.009Z,19.65
2023-04-23T05:13:00.803Z,19.63
2023-04-23T05:14:04.331Z,19.63
2023-04-23T05:15:07.178Z,19.65
2023-04-23T05:16:09.674Z,19.66
2023-04-23T05:17:11.848Z,19.64
2023-04-23T05:18:13.719Z,19.64
2023-04-23T05:19:15.586Z,19.64
2023-04-23T05:20:17.542Z,19.63
2023-04-23T05:21:19.725Z,19.62
2023-04-23T05:22:21.826Z,19.62
2023-04-23T05:23:23.730Z,19.62
2023-04-23T05:24:25.641Z,19.62
2023-04-23T05:25:27.405Z,19.61
2023-04-23T05:26:29.605Z,19.62
2023-04-23T05:27:31.447Z,19.61
2023-04-23T05:28:33.431Z,19.60
2023-04-23T05:29:35.377Z,19.60
2023-04-23T05:30:37.628Z,19.51
2023-04-23T05:31:39.453Z,19.60
2023-04-23T05:32:41.669Z,19.53
2023-04-23T05:33:50.056Z,19.54
2023-04-23T05:34:52.658Z,19.61
2023-04-23T05:35:55.104Z,19.60
2023-04-23T05:36:56.918Z,19.53
2023-04-23T05:37:58.820Z,19.60
2023-04-23T05:39:00.821Z,19.55
2023-04-23T05:40:02.920Z,19.53
2023-04-23T05:41:04.825Z,19.59
2023-04-23T05:42:06.675Z,19.58
2023-04-23T05:43:08.549Z,19.57
2023-04-23T05:44:10.317Z,19.50
2023-04-23T05:45:12.100Z,19.51
2023-04-23T05:46:13.978Z,19.57
2023-04-23T05:47:15.946Z,19.57
2023-04-23T05:48:17.889Z,19.57
2023-04-23T05:49:19.678Z,19.55
2023-04-23T05:50:22.012Z,19.56
2023-04-23T05:51:23.891Z,19.56
2023-04-23T05:52:25.733Z,19.56
2023-04-23T05:53:28.437Z,19.56
2023-04-23T05:54:30.444Z,19.56
2023-04-23T05:55:32.229Z,19.55
2023-04-23T05:56:34.295Z,19.55
2023-04-23T05:57:37.143Z,19.54
2023-04-23T05:58:39.143Z,19.55
2023-04-23T05:59:41.272Z,19.52
2023-04-23T06:00:43.321Z,19.55
2023-04-23T06:01:45.273Z,19.54
2023-04-23T06:02:48.182Z,19.53
2023-04-23T06:03:50.575Z,19.52
2023-04-23T06:04:53.054Z,19.52
2023-04-23T06:05:55.258Z,19.47
2023-04-23T06:06:57.148Z,19.47
2023-04-23T06:07:58.942Z,19.52
2023-04-23T06:09:00.760Z,19.52
2023-04-23T06:10:05.638Z,19.52
2023-04-23T06:11:07.958Z,19.56
2023-04-23T06:12:11.679Z,19.50
2023-04-23T06:13:13.567Z,19.52
2023-04-23T06:14:15.561Z,19.59
2023-04-23T06:15:17.358Z,19.61
2023-04-23T06:16:19.575Z,19.64
2023-04-23T06:17:21.681Z,19.60
2023-04-23T06:18:23.478Z,19.68
2023-04-23T06:19:27.344Z,19.65
2023-04-23T06:20:29.807Z,19.74
2023-04-23T06:21:32.584Z,19.77
2023-04-23T06:22:34.537Z,19.80
2023-04-23T06:23:36.933Z,19.82
2023-04-23T06:24:39.026Z,19.85
2023-04-23T06:25:41.007Z,19.88
2023-04-23T06:26:42.827Z,19.92
2023-04-23T06:27:51.361Z,19.95
2023-04-23T06:28:57.591Z,19.99
2023-04-23T06:30:09.229Z,20.00
2023-04-23T06:31:12.177Z,20.07
2023-04-23T06:32:14.276Z,20.09
2023-04-23T06:33:16.108Z,20.11
2023-04-23T06:34:17.868Z,20.13
2023-04-23T06:35:19.862Z,20.05
2023-04-23T06:36:21.904Z,20.14
2023-04-23T06:37:23.685Z,20.21
2023-04-23T06:38:25.541Z,20.24
2023-04-23T06:39:27.379Z,20.26
2023-04-23T06:40:29.161Z,20.31
2023-04-23T06:41:31.104Z,20.31
2023-04-23T06:42:45.625Z,20.38
2023-04-23T06:43:55.925Z,20.41
2023-04-23T06:45:08.756Z,20.44
2023-04-23T06:46:10.649Z,20.45
2023-04-23T06:47:12.531Z,20.45
2023-04-23T06:48:14.682Z,20.46
2023-04-23T06:49:16.537Z,20.47
2023-04-23T06:50:18.427Z,20.49
2023-04-23T06:51:20.520Z,20.51
2023-04-23T06:52:22.357Z,20.52
2023-04-23T06:53:24.184Z,20.52
2023-04-23T06:54:26.245Z,20.54
2023-04-23T06:55:29.142Z,20.56
2023-04-23T06:56:31.092Z,20.58
2023-04-23T06:57:32.982Z,20.58
2023-04-23T06:58:34.988Z,20.60
2023-04-23T06:59:45.684Z,20.62
2023-04-23T07:00:49.312Z,20.63
2023-04-23T07:01:52.503Z,20.64
2023-04-23T07:02:54.590Z,20.65
2023-04-23T07:03:56.585Z,20.61
2023-04-23T07:04:58.871Z,20.50
2023-04-23T07:06:00.666Z,20.65
2023-04-23T07:07:02.710Z,20.65
2023-04-23T07:08:04.711Z,20.66
2023-04-23T07:09:07.324Z,20.66
2023-04-23T07:10:12.380Z,20.66
2023-04-23T07:11:14.296Z,20.69
2023-04-23T07:12:16.197Z,20.69
2023-04-23T07:13:18.095Z,20.69
2023-04-23T07:14:20.053Z,20.70
2023-04-23T07:15:21.858Z,20.70
2023-04-23T07:16:24.706Z,20.71
2023-04-23T07:17:26.883Z,20.71
2023-04-23T07:18:28.867Z,20.72
2023-04-23T07:19:30.640Z,20.72
2023-04-23T07:20:32.890Z,20.72
2023-04-23T07:21:34.662Z,20.72
2023-04-23T07:22:36.525Z,20.73
2023-04-23T07:23:38.382Z,20.73
2023-04-23T07:24:41.744Z,20.74
2023-04-23T07:25:43.810Z,20.76
2023-04-23T07:26:46.035Z,20.66
2023-04-23T07:27:48.232Z,20.75
2023-04-23T07:28:52.638Z,20.76
2023-04-23T07:29:54.828Z,20.77
2023-04-23T07:30:56.638Z,20.76
2023-04-23T07:31:58.506Z,20.75
2023-04-23T07:33:01.116Z,20.77
2023-04-23T07:34:03.456Z,20.74
2023-04-23T07:35:06.593Z,20.77
2023-04-23T07:36:08.448Z,20.78
2023-04-23T07:37:10.268Z,20.69
2023-04-23T07:38:12.260Z,20.78
2023-04-23T07:39:14.319Z,20.78
2023-04-23T07:40:16.082Z,20.77
2023-04-23T07:41:18.348Z,20.77
2023-04-23T07:42:20.338Z,20.78
2023-04-23T07:43:22.140Z,20.76
2023-04-23T07:44:23.969Z,20.73
2023-04-23T07:45:26.032Z,20.74
2023-04-23T07:46:28.023Z,20.76
2023-04-23T07:47:30.007Z,20.73
2023-04-23T07:48:31.897Z,20.75
2023-04-23T07:49:33.685Z,20.75
2023-04-23T07:50:35.531Z,20.75
2023-04-23T07:51:37.820Z,20.72
2023-04-23T07:52:40.062Z,20.75
2023-04-23T07:53:42.259Z,20.74
2023-04-23T07:54:44.868Z,20.73
2023-04-23T07:55:46.699Z,20.73
2023-04-23T07:56:48.649Z,20.72
2023-04-23T07:57:50.570Z,20.72
2023-04-23T07:58:54.105Z,20.71
2023-04-23T07:59:56.037Z,20.72
2023-04-23T08:00:57.890Z,20.71
2023-04-23T08:01:59.665Z,20.71
2023-04-23T08:03:01.669Z,20.71
2023-04-23T08:04:03.882Z,20.72
2023-04-23T08:05:06.904Z,20.72
2023-04-23T08:06:12.289Z,20.71
2023-04-23T08:07:14.047Z,20.72
2023-04-23T08:08:15.918Z,20.72
2023-04-23T08:09:17.676Z,20.71
2023-04-23T08:10:19.637Z,20.71
2023-04-23T08:11:22.035Z,20.71
2023-04-23T08:12:23.823Z,20.71
2023-04-23T08:13:25.608Z,20.71
2023-04-23T08:14:27.466Z,20.72
2023-04-23T08:15:29.463Z,20.71
2023-04-23T08:16:31.872Z,20.72
2023-04-23T08:17:33.730Z,20.72
2023-04-23T08:18:35.957Z,20.71
2023-04-23T08:19:37.834Z,20.66
2023-04-23T08:20:39.627Z,20.70
2023-04-23T08:21:41.542Z,20.62
2023-04-23T08:22:43.435Z,20.73
2023-04-23T08:23:45.300Z,20.72
2023-04-23T08:24:47.180Z,20.71
2023-04-23T08:25:48.961Z,20.72
2023-04-23T08:26:50.789Z,20.72
2023-04-23T08:27:52.767Z,20.72
2023-04-23T08:28:54.700Z,20.71
2023-04-23T08:29:56.556Z,20.67
2023-04-23T08:30:58.389Z,20.68
2023-04-23T08:32:00.251Z,20.70
2023-04-23T08:33:02.222Z,20.71
2023-04-23T08:34:04.128Z,20.71
2023-04-23T08:35:06.146Z,20.69
2023-04-23T08:36:08.345Z,20.70
2023-04-23T08:37:16.506Z,20.70
2023-04-23T08:38:25.302Z,20.66
2023-04-23T08:39:28.089Z,20.71
2023-04-23T08:40:31.960Z,20.70
2023-04-23T08:41:43.926Z,20.71
2023-04-23T08:43:00.881Z,20.72
2023-04-23T08:44:14.782Z,20.75
2023-04-23T08:45:17.212Z,20.74
2023-04-23T08:46:19.807Z,20.72
2023-04-23T08:47:25.384Z,20.69
2023-04-23T08:48:29.583Z,20.62
2023-04-23T08:49:33.799Z,20.69
2023-04-23T08:50:38.261Z,20.68
2023-04-23T08:51:43.663Z,20.61
2023-04-23T08:52:55.870Z,20.70
2023-04-23T08:53:59.407Z,20.70
2023-04-23T08:55:02.351Z,20.70
2023-04-23T08:56:07.218Z,20.68
2023-04-23T08:57:10.001Z,20.65
2023-04-23T08:58:12.556Z,20.62
2023-04-23T08:59:14.477Z,20.68
2023-04-23T09:00:18.746Z,20.67
2023-04-23T09:01:20.849Z,20.62
2023-04-23T09:02:23.274Z,20.56
2023-04-23T09:03:26.324Z,20.64
2023-04-23T09:04:28.940Z,20.65
2023-04-23T09:05:31.556Z,20.67
2023-04-23T09:06:33.396Z,20.67
2023-04-23T09:07:36.583Z,20.66
2023-04-23T09:08:38.874Z,20.64
2023-04-23T09:09:41.562Z,20.59
2023-04-23T09:10:44.799Z,20.68
2023-04-23T09:11:46.656Z,20.65
2023-04-23T09:12:48.583Z,20.66
2023-04-23T09:13:50.602Z,20.61
2023-04-23T09:14:52.463Z,20.50
2023-04-23T09:15:54.301Z,20.63
2023-04-23T09:16:56.432Z,20.65
2023-04-23T09:17:59.740Z,20.65
2023-04-23T09:19:02.422Z,20.65
2023-04-23T09:20:06.072Z,20.66
2023-04-23T09:21:08.015Z,20.66
2023-04-23T09:22:10.190Z,20.64
2023-04-23T09:23:15.105Z,20.63
2023-04-23T09:24:17.994Z,20.63
2023-04-23T09:25:22.264Z,20.64
2023-04-23T09:26:24.161Z,20.65
2023-04-23T09:27:26.497Z,20.64
2023-04-23T09:28:38.369Z,20.64
2023-04-23T09:29:44.636Z,20.63
2023-04-23T09:30:48.715Z,20.63
2023-04-23T09:31:52.989Z,20.63
2023-04-23T09:32:55.324Z,20.62
2023-04-23T09:33:58.235Z,20.60
2023-04-23T09:35:02.800Z,20.59
2023-04-23T09:36:15.742Z,20.61
2023-04-23T09:37:19.055Z,20.62
2023-04-23T09:38:21.017Z,20.55
2023-04-23T09:39:23.969Z,20.53
2023-04-23T09:40:28.017Z,20.56
2023-04-23T09:41:31.250Z,20.59
2023-04-23T09:42:33.227Z,20.59
2023-04-23T09:43:35.074Z,20.60
2023-04-23T09:44:36.937Z,20.58
2023-04-23T09:45:48.517Z,20.58
2023-04-23T09:46:50.945Z,20.51
2023-04-23T09:47:56.438Z,20.58
2023-04-23T09:48:58.357Z,20.54
2023-04-23T09:50:01.244Z,20.51
2023-04-23T09:51:03.104Z,20.42
2023-04-23T09:52:07.364Z,20.56
2023-04-23T09:53:10.660Z,20.56
2023-04-23T09:54:13.503Z,20.52
2023-04-23T09:55:15.546Z,20.55
2023-04-23T09:56:21.015Z,20.54
2023-04-23T09:57:24.899Z,20.46
2023-04-23T09:58:28.814Z,20.55
2023-04-23T09:59:46.868Z,20.49
2023-04-23T10:00:50.549Z,20.57
2023-04-23T10:01:53.178Z,20.57
2023-04-23T10:02:55.042Z,20.55
2023-04-23T10:03:57.038Z,20.49
2023-04-23T10:05:06.924Z,20.54
2023-04-23T10:06:30.582Z,20.60
2023-04-23T10:07:38.692Z,20.64
2023-04-23T10:08:41.369Z,20.60
2023-04-23T10:09:43.626Z,20.61
2023-04-23T10:11:02.433Z,20.53
2023-04-23T10:12:20.580Z,20.64
2023-04-23T10:13:32.117Z,20.61
2023-04-23T10:14:34.373Z,20.65
2023-04-23T10:15:36.609Z,20.63
2023-04-23T10:16:48.710Z,20.61
2023-04-23T10:17:52.209Z,20.63
2023-04-23T10:18:55.588Z,20.63
2023-04-23T10:20:01.725Z,20.61
2023-04-23T10:21:04.570Z,20.62
2023-04-23T10:23:22.454Z,20.64
2023-04-23T10:24:25.456Z,20.64
2023-04-23T10:25:28.621Z,20.57
2023-04-23T10:26:32.088Z,20.61
2023-04-23T10:27:51.247Z,20.55
2023-04-23T10:28:56.872Z,20.65
2023-04-23T10:29:59.562Z,20.64
2023-04-23T10:31:03.954Z,20.55
2023-04-23T10:32:07.221Z,20.63
2023-04-23T10:33:22.515Z,20.61
2023-04-23T10:34:31.998Z,20.65
2023-04-23T10:35:34.939Z,20.63
2023-04-23T10:36:39.618Z,20.62
2023-04-23T10:37:42.199Z,20.60
2023-04-23T10:38:54.955Z,20.49
2023-04-23T10:40:09.375Z,20.63
2023-04-23T10:41:12.757Z,20.63
2023-04-23T10:42:14.669Z,20.63
2023-04-23T10:43:18.009Z,20.54
2023-04-23T10:44:44.964Z,20.54
2023-04-23T10:45:45.750Z,20.65
2023-04-23T10:46:53.397Z,20.62
2023-04-23T10:47:56.356Z,20.59
2023-04-23T10:49:17.236Z,20.62
2023-04-23T10:50:27.203Z,20.65
2023-04-23T10:52:43.472Z,20.60
2023-04-23T10:53:45.983Z,20.61
2023-04-23T10:54:50.168Z,20.60
2023-04-23T10:56:06.655Z,20.54
2023-04-23T10:57:09.892Z,20.61
2023-04-23T10:58:11.716Z,20.60
2023-04-23T10:59:21.150Z,20.58
2023-04-23T11:00:23.285Z,20.55
2023-04-23T11:01:28.062Z,20.58
2023-04-23T11:02:44.434Z,20.59
2023-04-23T11:03:47.746Z,20.54
2023-04-23T11:04:57.819Z,20.57
2023-04-23T11:06:07.187Z,20.59
2023-04-23T11:07:10.837Z,20.58
2023-04-23T11:08:19.329Z,20.57
2023-04-23T11:09:49.604Z,20.61
2023-04-23T11:10:56.283Z,20.58
2023-04-23T11:11:59.926Z,20.56
2023-04-23T11:13:20.295Z,20.60
2023-04-23T11:14:36.040Z,20.51
2023-04-23T11:15:38.258Z,20.58
2023-04-23T11:16:40.126Z,20.52
2023-04-23T11:17:44.969Z,20.53
2023-04-23T11:19:00.134Z,20.54
2023-04-23T11:20:10.590Z,20.54
2023-04-23T11:21:13.942Z,20.42
2023-04-23T11:22:21.656Z,20.51
2023-04-23T11:23:33.104Z,20.53
2023-04-23T11:24:43.068Z,20.51
2023-04-23T11:25:46.670Z,20.52
2023-04-23T11:26:51.630Z,20.50
2023-04-23T11:27:55.697Z,20.41
2023-04-23T11:28:58.472Z,20.44
2023-04-23T11:30:00.445Z,20.42
2023-04-23T11:31:03.149Z,20.47
2023-04-23T11:32:10.493Z,20.46
2023-04-23T11:33:12.434Z,20.48
2023-04-23T11:34:14.676Z,20.46
2023-04-23T11:35:21.556Z,20.42
2023-04-23T11:36:24.259Z,20.46
2023-04-23T11:37:26.202Z,20.45
2023-04-23T11:38:33.682Z,20.45
2023-04-23T11:39:35.557Z,20.46
2023-04-23T11:40:37.426Z,20.45
2023-04-23T11:41:39.568Z,20.40
2023-04-23T11:42:46.655Z,20.43
2023-04-23T11:43:48.466Z,20.45
2023-04-23T11:44:50.344Z,20.43
2023-04-23T11:45:52.264Z,20.44
2023-04-23T11:46:54.989Z,20.43
2023-04-23T11:48:00.924Z,20.43
2023-04-23T11:49:03.056Z,20.42
2023-04-23T11:50:05.284Z,20.37
2023-04-23T11:51:07.906Z,20.42
2023-04-23T11:52:10.840Z,20.42
2023-04-23T11:53:12.993Z,20.41
2023-04-23T11:54:15.124Z,20.42
2023-04-23T11:55:17.108Z,20.41
2023-04-23T11:56:24.004Z,20.40
2023-04-23T11:57:25.868Z,20.41
2023-04-23T11:58:27.626Z,20.41
2023-04-23T11:59:29.422Z,20.40
2023-04-23T12:00:31.249Z,20.41
2023-04-23T12:01:47.396Z,20.33
2023-04-23T12:02:59.287Z,20.42
2023-04-23T12:04:10.268Z,20.44
2023-04-23T12:05:12.318Z,20.44
2023-04-23T12:06:17.868Z,20.41
2023-04-23T12:07:26.409Z,20.41
2023-04-23T12:08:34.955Z,20.31
2023-04-23T12:09:38.248Z,20.40
2023-04-23T12:10:54.641Z,20.40
2023-04-23T12:11:58.481Z,20.41
2023-04-23T12:13:00.452Z,20.38
2023-04-23T12:14:02.826Z,20.34
2023-04-23T12:15:07.214Z,20.31
2023-04-23T12:16:10.497Z,20.37
2023-04-23T12:17:12.942Z,20.36
2023-04-23T12:18:15.318Z,20.34
2023-04-23T12:19:19.299Z,20.34
2023-04-23T12:20:22.341Z,20.34
2023-04-23T12:21:26.178Z,20.32
2023-04-23T12:22:28.420Z,20.20
2023-04-23T12:23:30.319Z,20.34
2023-04-23T12:24:49.216Z,20.35
2023-04-23T12:25:54.596Z,20.37
2023-04-23T12:27:00.695Z,20.29
2023-04-23T12:28:06.882Z,20.29
2023-04-23T12:29:08.784Z,20.36
2023-04-23T12:30:11.999Z,20.25
2023-04-23T12:31:21.134Z,20.30
2023-04-23T12:32:24.559Z,20.34
2023-04-23T12:33:30.037Z,20.33
2023-04-23T12:34:32.029Z,20.35
2023-04-23T12:35:45.653Z,20.34
2023-04-23T12:36:50.133Z,20.29
2023-04-23T12:37:51.956Z,20.35
2023-04-23T12:38:53.831Z,20.33
2023-04-23T12:39:56.869Z,20.29
2023-04-23T12:41:00.053Z,20.31
2023-04-23T12:42:05.265Z,20.30
2023-04-23T12:43:07.333Z,20.25
2023-04-23T12:44:09.185Z,20.31
2023-04-23T12:45:11.304Z,20.30
2023-04-23T12:46:13.108Z,20.30
2023-04-23T12:47:19.757Z,20.30
2023-04-23T12:48:21.798Z,20.30
2023-04-23T12:49:23.695Z,20.30
2023-04-23T12:50:25.592Z,20.30
2023-04-23T12:51:27.377Z,20.29
2023-04-23T12:52:29.837Z,20.30
2023-04-23T12:53:31.619Z,20.25
2023-04-23T12:54:37.737Z,20.28
2023-04-23T12:55:39.799Z,20.31
2023-04-23T12:56:41.846Z,20.29
2023-04-23T12:57:43.645Z,20.30
2023-04-23T12:58:45.526Z,20.29
2023-04-23T12:59:47.373Z,20.29
2023-04-23T13:00:49.296Z,20.29
2023-04-23T13:01:51.708Z,20.25
2023-04-23T13:02:56.038Z,20.14
2023-04-23T13:03:58.404Z,20.27
2023-04-23T13:05:01.352Z,20.26
2023-04-23T13:06:03.345Z,20.24
2023-04-23T13:07:05.311Z,20.21
2023-04-23T13:08:07.272Z,20.27
2023-04-23T13:09:10.284Z,20.27
2023-04-23T13:10:12.192Z,20.24
2023-04-23T13:11:13.967Z,20.27
2023-04-23T13:12:15.814Z,20.24
2023-04-23T13:13:17.645Z,20.26
2023-04-23T13:14:20.939Z,20.27
2023-04-23T13:15:22.905Z,20.27
2023-04-23T13:16:25.382Z,20.27
2023-04-23T13:17:27.551Z,20.27
2023-04-23T13:18:29.381Z,20.26
2023-04-23T13:19:31.695Z,20.27
2023-04-23T13:20:33.488Z,20.26
2023-04-23T13:21:35.576Z,20.26
2023-04-23T13:22:37.488Z,20.10
2023-04-23T13:23:39.355Z,20.27
2023-04-23T13:24:41.236Z,20.27
2023-04-23T13:25:43.044Z,20.27
2023-04-23T13:26:44.877Z,20.26
2023-04-23T13:27:46.631Z,20.27
2023-04-23T13:28:48.563Z,20.26
2023-04-23T13:29:50.418Z,20.26
2023-04-23T13:30:52.209Z,20.26
2023-04-23T13:31:58.275Z,20.19
2023-04-23T13:33:00.292Z,20.28
2023-04-23T13:34:03.300Z,20.23
2023-04-23T13:35:05.674Z,20.27
2023-04-23T13:36:08.270Z,20.26
2023-04-23T13:37:10.236Z,20.26
2023-04-23T13:38:12.114Z,20.26
2023-04-23T13:39:14.367Z,20.27
2023-04-23T13:40:16.192Z,20.15
2023-04-23T13:41:17.972Z,20.27